sensor_id;sensor_type;location;lat;lon;timestamp;temperature;humidity
11320;DHT22;5715;48.234;14.320;2023-05-10T00:01:36;12.50;99.90
11320;DHT22;5715;48.234;14.320;2023-05-10T00:04:24;12.50;99.90
11320;DHT22;5715;48.234;14.320;2023-05-10T00:07:14;12.50;99.90
11320;DHT22;5715;48.234;14.320;2023-05-10T00:10:04;12.50;99.90
11320;DHT22;5715;48.234;14.320;2023-05-10T00:12:52;12.50;99.90
11320;DHT22;5715;48.234;14.320;2023-05-10T00:15:39;12.50;99.90
11320;DHT22;5715;48.234;14.320;2023-05-10T00:18:27;12.40;99.90
11320;DHT22;5715;48.234;14.320;2023-05-10T00:21:14;12.40;99.90
11320;DHT22;5715;48.234;14.320;2023-05-10T00:24:02;12.40;99.90
11320;DHT22;5715;48.234;14.320;2023-05-10T00:26:50;12.50;99.90
11320;DHT22;5715;48.234;14.320;2023-05-10T00:29:37;12.40;99.90
11320;DHT22;5715;48.234;14.320;2023-05-10T00:32:25;12.40;99.90
11320;DHT22;5715;48.234;14.320;2023-05-10T00:35:12;12.30;99.90
11320;DHT22;5715;48.234;14.320;2023-05-10T00:38:00;12.30;99.90
11320;DHT22;5715;48.234;14.320;2023-05-10T00:40:47;12.20;99.90
11320;DHT22;5715;48.234;14.320;2023-05-10T00:43:35;12.20;99.90
11320;DHT22;5715;48.234;14.320;2023-05-10T00:46:23;12.10;99.90
11320;DHT22;5715;48.234;14.320;2023-05-10T00:49:12;12.00;99.90
11320;DHT22;5715;48.234;14.320;2023-05-10T00:52:00;11.90;99.90
11320;DHT22;5715;48.234;14.320;2023-05-10T00:54:50;11.80;99.90
11320;DHT22;5715;48.234;14.320;2023-05-10T00:57:39;11.70;99.90
11320;DHT22;5715;48.234;14.320;2023-05-10T01:00:27;11.50;99.90
11320;DHT22;5715;48.234;14.320;2023-05-10T01:03:14;11.50;99.90
11320;DHT22;5715;48.234;14.320;2023-05-10T01:06:02;11.40;99.90
11320;DHT22;5715;48.234;14.320;2023-05-10T01:08:50;11.40;99.90
11320;DHT22;5715;48.234;14.320;2023-05-10T01:11:38;11.40;99.90
11320;DHT22;5715;48.234;14.320;2023-05-10T01:14:28;11.40;99.90
11320;DHT22;5715;48.234;14.320;2023-05-10T01:17:17;11.30;99.90
11320;DHT22;5715;48.234;14.320;2023-05-10T01:20:07;11.20;99.90
11320;DHT22;5715;48.234;14.320;2023-05-10T01:26:31;11.20;99.90
11320;DHT22;5715;48.234;14.320;2023-05-10T01:33:30;11.10;99.90
11320;DHT22;5715;48.234;14.320;2023-05-10T01:36:34;11.10;99.90
11320;DHT22;5715;48.234;14.320;2023-05-10T01:42:28;11.10;99.90
11320;DHT22;5715;48.234;14.320;2023-05-10T01:45:29;10.90;99.90
11320;DHT22;5715;48.234;14.320;2023-05-10T01:48:21;10.70;99.90
11320;DHT22;5715;48.234;14.320;2023-05-10T01:51:10;10.50;99.90
11320;DHT22;5715;48.234;14.320;2023-05-10T01:54:01;10.20;99.90
11320;DHT22;5715;48.234;14.320;2023-05-10T01:56:56;10.00;99.90
11320;DHT22;5715;48.234;14.320;2023-05-10T01:59:50;9.80;99.90
11320;DHT22;5715;48.234;14.320;2023-05-10T02:02:42;9.70;99.90
11320;DHT22;5715;48.234;14.320;2023-05-10T02:05:33;9.60;99.90
11320;DHT22;5715;48.234;14.320;2023-05-10T02:08:23;9.50;99.90
11320;DHT22;5715;48.234;14.320;2023-05-10T02:11:13;9.40;99.90
11320;DHT22;5715;48.234;14.320;2023-05-10T02:14:01;9.40;99.90
11320;DHT22;5715;48.234;14.320;2023-05-10T02:16:52;9.30;99.90
11320;DHT22;5715;48.234;14.320;2023-05-10T02:19:43;9.20;99.90
11320;DHT22;5715;48.234;14.320;2023-05-10T02:22:35;9.10;99.90
11320;DHT22;5715;48.234;14.320;2023-05-10T02:25:25;9.00;99.90
11320;DHT22;5715;48.234;14.320;2023-05-10T02:28:14;8.90;99.90
11320;DHT22;5715;48.234;14.320;2023-05-10T02:31:05;8.90;99.90
11320;DHT22;5715;48.234;14.320;2023-05-10T02:33:55;8.80;99.90
11320;DHT22;5715;48.234;14.320;2023-05-10T02:36:44;8.80;99.90
11320;DHT22;5715;48.234;14.320;2023-05-10T02:39:32;8.90;99.90
11320;DHT22;5715;48.234;14.320;2023-05-10T02:42:26;8.90;99.90
11320;DHT22;5715;48.234;14.320;2023-05-10T02:45:19;8.90;99.90
11320;DHT22;5715;48.234;14.320;2023-05-10T02:48:09;8.90;99.90
11320;DHT22;5715;48.234;14.320;2023-05-10T02:51:03;8.80;99.90
11320;DHT22;5715;48.234;14.320;2023-05-10T02:53:55;8.80;99.90
11320;DHT22;5715;48.234;14.320;2023-05-10T02:56:50;8.90;99.90
11320;DHT22;5715;48.234;14.320;2023-05-10T02:59:40;8.90;99.90
11320;DHT22;5715;48.234;14.320;2023-05-10T03:02:30;8.90;99.90
11320;DHT22;5715;48.234;14.320;2023-05-10T03:05:18;8.90;99.90
11320;DHT22;5715;48.234;14.320;2023-05-10T03:08:06;8.90;99.90
11320;DHT22;5715;48.234;14.320;2023-05-10T03:11:21;8.90;99.90
11320;DHT22;5715;48.234;14.320;2023-05-10T03:14:34;8.90;99.90
11320;DHT22;5715;48.234;14.320;2023-05-10T03:20:42;8.90;99.90
11320;DHT22;5715;48.234;14.320;2023-05-10T03:23:43;8.90;99.90
11320;DHT22;5715;48.234;14.320;2023-05-10T03:26:34;8.80;99.90
11320;DHT22;5715;48.234;14.320;2023-05-10T03:29:25;8.80;99.90
11320;DHT22;5715;48.234;14.320;2023-05-10T03:32:15;8.90;99.90
11320;DHT22;5715;48.234;14.320;2023-05-10T03:35:13;8.90;99.90
11320;DHT22;5715;48.234;14.320;2023-05-10T03:38:01;9.00;99.90
11320;DHT22;5715;48.234;14.320;2023-05-10T03:40:49;9.10;99.90
11320;DHT22;5715;48.234;14.320;2023-05-10T03:43:36;9.20;99.90
11320;DHT22;5715;48.234;14.320;2023-05-10T03:46:24;9.20;99.90
11320;DHT22;5715;48.234;14.320;2023-05-10T03:49:11;9.30;99.90
11320;DHT22;5715;48.234;14.320;2023-05-10T03:51:59;9.40;99.90
11320;DHT22;5715;48.234;14.320;2023-05-10T03:54:47;9.50;99.90
11320;DHT22;5715;48.234;14.320;2023-05-10T03:57:34;9.70;99.90
11320;DHT22;5715;48.234;14.320;2023-05-10T04:00:22;9.90;99.90
11320;DHT22;5715;48.234;14.320;2023-05-10T04:03:10;10.00;99.90
11320;DHT22;5715;48.234;14.320;2023-05-10T04:06:00;10.20;99.90
11320;DHT22;5715;48.234;14.320;2023-05-10T04:08:49;10.40;99.90
11320;DHT22;5715;48.234;14.320;2023-05-10T04:11:36;10.50;99.90
11320;DHT22;5715;48.234;14.320;2023-05-10T04:14:24;10.60;99.90
11320;DHT22;5715;48.234;14.320;2023-05-10T04:17:11;10.70;99.90
11320;DHT22;5715;48.234;14.320;2023-05-10T04:19:59;10.70;99.90
11320;DHT22;5715;48.234;14.320;2023-05-10T04:22:46;10.80;99.90
11320;DHT22;5715;48.234;14.320;2023-05-10T04:25:34;10.80;99.90
11320;DHT22;5715;48.234;14.320;2023-05-10T04:28:22;10.90;99.90
11320;DHT22;5715;48.234;14.320;2023-05-10T04:31:10;10.90;99.90
11320;DHT22;5715;48.234;14.320;2023-05-10T04:33:58;10.90;99.90
11320;DHT22;5715;48.234;14.320;2023-05-10T04:36:45;11.00;99.90
11320;DHT22;5715;48.234;14.320;2023-05-10T04:39:33;11.10;99.90
11320;DHT22;5715;48.234;14.320;2023-05-10T04:42:20;11.10;99.90
11320;DHT22;5715;48.234;14.320;2023-05-10T04:45:08;11.10;99.90
11320;DHT22;5715;48.234;14.320;2023-05-10T04:47:56;11.20;99.90
11320;DHT22;5715;48.234;14.320;2023-05-10T04:50:44;11.20;99.90
11320;DHT22;5715;48.234;14.320;2023-05-10T04:53:31;11.30;99.90
11320;DHT22;5715;48.234;14.320;2023-05-10T04:56:19;11.30;99.90
11320;DHT22;5715;48.234;14.320;2023-05-10T04:59:07;11.40;99.90
11320;DHT22;5715;48.234;14.320;2023-05-10T05:01:54;11.50;99.90
11320;DHT22;5715;48.234;14.320;2023-05-10T05:04:42;11.60;99.90
11320;DHT22;5715;48.234;14.320;2023-05-10T05:07:29;11.60;99.90
11320;DHT22;5715;48.234;14.320;2023-05-10T05:10:17;11.70;99.90
11320;DHT22;5715;48.234;14.320;2023-05-10T05:13:05;11.70;99.90
11320;DHT22;5715;48.234;14.320;2023-05-10T05:15:53;11.70;99.90
11320;DHT22;5715;48.234;14.320;2023-05-10T05:18:42;11.70;99.90
11320;DHT22;5715;48.234;14.320;2023-05-10T05:21:29;11.80;99.90
11320;DHT22;5715;48.234;14.320;2023-05-10T05:24:17;11.80;99.90
11320;DHT22;5715;48.234;14.320;2023-05-10T05:27:04;11.80;99.90
11320;DHT22;5715;48.234;14.320;2023-05-10T05:29:56;11.80;99.90
11320;DHT22;5715;48.234;14.320;2023-05-10T05:32:43;11.80;99.90
11320;DHT22;5715;48.234;14.320;2023-05-10T05:35:31;11.90;99.90
11320;DHT22;5715;48.234;14.320;2023-05-10T05:38:19;11.90;99.90
11320;DHT22;5715;48.234;14.320;2023-05-10T05:41:06;11.90;99.90
11320;DHT22;5715;48.234;14.320;2023-05-10T05:43:54;12.00;99.90
11320;DHT22;5715;48.234;14.320;2023-05-10T05:46:41;12.10;99.90
11320;DHT22;5715;48.234;14.320;2023-05-10T05:49:29;12.10;99.90
11320;DHT22;5715;48.234;14.320;2023-05-10T05:52:17;12.10;99.90
11320;DHT22;5715;48.234;14.320;2023-05-10T05:55:04;12.10;99.90
11320;DHT22;5715;48.234;14.320;2023-05-10T05:57:52;12.20;99.90
11320;DHT22;5715;48.234;14.320;2023-05-10T06:00:40;12.20;99.90
11320;DHT22;5715;48.234;14.320;2023-05-10T06:03:28;12.20;99.90
11320;DHT22;5715;48.234;14.320;2023-05-10T06:06:16;12.30;99.90
11320;DHT22;5715;48.234;14.320;2023-05-10T06:09:04;12.30;99.90
11320;DHT22;5715;48.234;14.320;2023-05-10T06:11:51;12.30;99.90
11320;DHT22;5715;48.234;14.320;2023-05-10T06:14:39;12.30;99.90
11320;DHT22;5715;48.234;14.320;2023-05-10T06:17:26;12.40;99.90
11320;DHT22;5715;48.234;14.320;2023-05-10T06:20:15;12.40;99.90
11320;DHT22;5715;48.234;14.320;2023-05-10T06:23:02;12.50;99.90
11320;DHT22;5715;48.234;14.320;2023-05-10T06:25:50;12.50;99.90
11320;DHT22;5715;48.234;14.320;2023-05-10T06:28:39;12.60;99.90
11320;DHT22;5715;48.234;14.320;2023-05-10T06:31:27;12.50;99.90
11320;DHT22;5715;48.234;14.320;2023-05-10T06:34:14;12.40;99.90
11320;DHT22;5715;48.234;14.320;2023-05-10T06:37:02;12.40;99.90
11320;DHT22;5715;48.234;14.320;2023-05-10T06:39:53;12.40;99.90
11320;DHT22;5715;48.234;14.320;2023-05-10T06:42:40;12.40;99.90
11320;DHT22;5715;48.234;14.320;2023-05-10T06:45:28;12.40;99.90
11320;DHT22;5715;48.234;14.320;2023-05-10T06:48:15;12.40;99.90
11320;DHT22;5715;48.234;14.320;2023-05-10T06:51:03;12.40;99.90
11320;DHT22;5715;48.234;14.320;2023-05-10T06:53:51;12.50;99.90
11320;DHT22;5715;48.234;14.320;2023-05-10T06:56:38;12.50;99.90
11320;DHT22;5715;48.234;14.320;2023-05-10T06:59:26;12.50;99.90
11320;DHT22;5715;48.234;14.320;2023-05-10T07:02:13;12.40;99.90
11320;DHT22;5715;48.234;14.320;2023-05-10T07:05:02;12.40;99.90
11320;DHT22;5715;48.234;14.320;2023-05-10T07:07:50;12.40;99.90
11320;DHT22;5715;48.234;14.320;2023-05-10T07:10:38;12.40;99.90
11320;DHT22;5715;48.234;14.320;2023-05-10T07:13:26;12.40;99.90
11320;DHT22;5715;48.234;14.320;2023-05-10T07:16:13;12.50;99.90
11320;DHT22;5715;48.234;14.320;2023-05-10T07:19:01;12.50;99.90
11320;DHT22;5715;48.234;14.320;2023-05-10T07:21:49;12.50;99.90
11320;DHT22;5715;48.234;14.320;2023-05-10T07:24:38;12.50;99.90
11320;DHT22;5715;48.234;14.320;2023-05-10T07:27:25;12.50;99.90
11320;DHT22;5715;48.234;14.320;2023-05-10T07:30:13;12.50;99.90
11320;DHT22;5715;48.234;14.320;2023-05-10T07:33:00;12.50;99.90
11320;DHT22;5715;48.234;14.320;2023-05-10T07:35:49;12.50;99.90
11320;DHT22;5715;48.234;14.320;2023-05-10T07:38:37;12.60;99.90
11320;DHT22;5715;48.234;14.320;2023-05-10T07:41:26;12.60;99.90
11320;DHT22;5715;48.234;14.320;2023-05-10T07:44:14;12.70;99.90
11320;DHT22;5715;48.234;14.320;2023-05-10T07:47:02;12.80;99.90
11320;DHT22;5715;48.234;14.320;2023-05-10T07:49:49;12.80;99.90
11320;DHT22;5715;48.234;14.320;2023-05-10T07:52:37;13.00;99.90
11320;DHT22;5715;48.234;14.320;2023-05-10T07:55:24;13.00;99.90
11320;DHT22;5715;48.234;14.320;2023-05-10T07:58:13;13.00;99.90
11320;DHT22;5715;48.234;14.320;2023-05-10T08:01:00;13.00;99.90
11320;DHT22;5715;48.234;14.320;2023-05-10T08:03:48;13.10;99.90
11320;DHT22;5715;48.234;14.320;2023-05-10T08:06:37;13.30;99.90
11320;DHT22;5715;48.234;14.320;2023-05-10T08:09:25;13.40;99.90
11320;DHT22;5715;48.234;14.320;2023-05-10T08:12:12;13.40;99.90
11320;DHT22;5715;48.234;14.320;2023-05-10T08:15:00;13.40;99.90
11320;DHT22;5715;48.234;14.320;2023-05-10T08:17:47;13.30;99.90
11320;DHT22;5715;48.234;14.320;2023-05-10T08:20:35;13.30;99.90
11320;DHT22;5715;48.234;14.320;2023-05-10T08:23:22;13.20;99.90
11320;DHT22;5715;48.234;14.320;2023-05-10T08:26:10;13.20;99.90
11320;DHT22;5715;48.234;14.320;2023-05-10T08:28:58;13.10;99.90
11320;DHT22;5715;48.234;14.320;2023-05-10T08:31:46;13.20;99.90
11320;DHT22;5715;48.234;14.320;2023-05-10T08:34:33;13.20;99.90
11320;DHT22;5715;48.234;14.320;2023-05-10T08:37:22;13.20;99.90
11320;DHT22;5715;48.234;14.320;2023-05-10T08:40:11;13.20;99.90
11320;DHT22;5715;48.234;14.320;2023-05-10T08:43:07;13.20;99.90
11320;DHT22;5715;48.234;14.320;2023-05-10T08:46:00;12.80;99.90
11320;DHT22;5715;48.234;14.320;2023-05-10T08:48:53;12.80;99.90
11320;DHT22;5715;48.234;14.320;2023-05-10T08:51:46;12.70;99.90
11320;DHT22;5715;48.234;14.320;2023-05-10T08:54:37;12.60;99.90
11320;DHT22;5715;48.234;14.320;2023-05-10T08:57:25;12.70;99.90
11320;DHT22;5715;48.234;14.320;2023-05-10T09:00:13;12.70;99.90
11320;DHT22;5715;48.234;14.320;2023-05-10T09:03:04;12.60;99.90
11320;DHT22;5715;48.234;14.320;2023-05-10T09:05:52;12.70;99.90
11320;DHT22;5715;48.234;14.320;2023-05-10T09:08:43;12.80;99.90
11320;DHT22;5715;48.234;14.320;2023-05-10T09:11:32;12.70;99.90
11320;DHT22;5715;48.234;14.320;2023-05-10T09:14:20;12.80;99.90
11320;DHT22;5715;48.234;14.320;2023-05-10T09:17:07;12.80;99.90
11320;DHT22;5715;48.234;14.320;2023-05-10T09:20:01;12.90;99.90
11320;DHT22;5715;48.234;14.320;2023-05-10T09:22:51;12.90;99.90
11320;DHT22;5715;48.234;14.320;2023-05-10T09:25:41;13.00;99.90
11320;DHT22;5715;48.234;14.320;2023-05-10T09:28:32;13.00;99.90
11320;DHT22;5715;48.234;14.320;2023-05-10T09:31:46;13.00;99.90
11320;DHT22;5715;48.234;14.320;2023-05-10T09:34:35;13.10;99.90
11320;DHT22;5715;48.234;14.320;2023-05-10T09:37:30;13.10;99.90
11320;DHT22;5715;48.234;14.320;2023-05-10T09:40:22;13.30;99.90
11320;DHT22;5715;48.234;14.320;2023-05-10T09:43:11;13.40;99.90
11320;DHT22;5715;48.234;14.320;2023-05-10T09:46:09;13.70;99.90
11320;DHT22;5715;48.234;14.320;2023-05-10T09:48:58;13.90;99.90
11320;DHT22;5715;48.234;14.320;2023-05-10T09:51:46;14.00;99.90
11320;DHT22;5715;48.234;14.320;2023-05-10T09:54:34;14.10;99.90
11320;DHT22;5715;48.234;14.320;2023-05-10T09:57:23;14.10;99.90
11320;DHT22;5715;48.234;14.320;2023-05-10T10:00:19;14.20;99.90
11320;DHT22;5715;48.234;14.320;2023-05-10T10:03:19;14.20;99.90
11320;DHT22;5715;48.234;14.320;2023-05-10T10:06:08;14.00;99.90
11320;DHT22;5715;48.234;14.320;2023-05-10T10:09:09;14.20;99.90
11320;DHT22;5715;48.234;14.320;2023-05-10T10:11:56;14.20;99.90
11320;DHT22;5715;48.234;14.320;2023-05-10T10:14:47;14.20;99.90
11320;DHT22;5715;48.234;14.320;2023-05-10T10:17:37;14.50;99.90
11320;DHT22;5715;48.234;14.320;2023-05-10T10:20:28;14.60;99.90
11320;DHT22;5715;48.234;14.320;2023-05-10T10:23:16;14.90;99.90
11320;DHT22;5715;48.234;14.320;2023-05-10T10:26:04;14.90;99.90
11320;DHT22;5715;48.234;14.320;2023-05-10T10:29:23;14.90;99.90
11320;DHT22;5715;48.234;14.320;2023-05-10T10:36:13;14.80;99.90
11320;DHT22;5715;48.234;14.320;2023-05-10T10:39:09;14.70;99.90
11320;DHT22;5715;48.234;14.320;2023-05-10T10:41:58;14.50;99.90
11320;DHT22;5715;48.234;14.320;2023-05-10T10:44:47;14.50;99.90
11320;DHT22;5715;48.234;14.320;2023-05-10T10:47:34;14.50;99.90
11320;DHT22;5715;48.234;14.320;2023-05-10T10:50:24;14.50;99.90
11320;DHT22;5715;48.234;14.320;2023-05-10T10:53:12;14.60;99.90
11320;DHT22;5715;48.234;14.320;2023-05-10T10:56:11;14.70;99.90
11320;DHT22;5715;48.234;14.320;2023-05-10T10:59:00;14.80;99.90
11320;DHT22;5715;48.234;14.320;2023-05-10T11:01:51;14.90;99.90
11320;DHT22;5715;48.234;14.320;2023-05-10T11:04:43;15.00;99.90
11320;DHT22;5715;48.234;14.320;2023-05-10T11:07:33;15.10;99.90
11320;DHT22;5715;48.234;14.320;2023-05-10T11:10:22;15.30;99.90
11320;DHT22;5715;48.234;14.320;2023-05-10T11:13:11;15.20;99.90
11320;DHT22;5715;48.234;14.320;2023-05-10T11:16:09;15.30;99.90
11320;DHT22;5715;48.234;14.320;2023-05-10T11:19:09;15.30;99.90
11320;DHT22;5715;48.234;14.320;2023-05-10T11:24:58;15.50;99.90
11320;DHT22;5715;48.234;14.320;2023-05-10T11:27:48;15.60;99.90
11320;DHT22;5715;48.234;14.320;2023-05-10T11:30:36;15.60;99.90
11320;DHT22;5715;48.234;14.320;2023-05-10T11:33:25;15.70;99.90
11320;DHT22;5715;48.234;14.320;2023-05-10T11:36:21;15.80;99.90
11320;DHT22;5715;48.234;14.320;2023-05-10T11:39:15;15.80;99.90
11320;DHT22;5715;48.234;14.320;2023-05-10T11:42:03;15.50;99.90
11320;DHT22;5715;48.234;14.320;2023-05-10T11:44:51;15.50;99.90
11320;DHT22;5715;48.234;14.320;2023-05-10T11:47:39;15.50;99.90
11320;DHT22;5715;48.234;14.320;2023-05-10T11:50:29;15.50;99.90
11320;DHT22;5715;48.234;14.320;2023-05-10T11:53:21;15.50;99.90
11320;DHT22;5715;48.234;14.320;2023-05-10T11:56:11;15.30;99.90
11320;DHT22;5715;48.234;14.320;2023-05-10T11:59:00;15.50;99.90
11320;DHT22;5715;48.234;14.320;2023-05-10T12:01:48;15.60;99.90
11320;DHT22;5715;48.234;14.320;2023-05-10T12:04:36;15.60;99.90
11320;DHT22;5715;48.234;14.320;2023-05-10T12:07:26;15.70;99.90
11320;DHT22;5715;48.234;14.320;2023-05-10T12:10:14;15.70;99.90
11320;DHT22;5715;48.234;14.320;2023-05-10T12:13:02;15.60;99.90
11320;DHT22;5715;48.234;14.320;2023-05-10T12:15:50;15.50;99.90
11320;DHT22;5715;48.234;14.320;2023-05-10T12:18:40;15.20;99.90
11320;DHT22;5715;48.234;14.320;2023-05-10T12:21:29;15.10;99.90
11320;DHT22;5715;48.234;14.320;2023-05-10T12:24:17;15.00;99.90
11320;DHT22;5715;48.234;14.320;2023-05-10T12:27:08;14.90;99.90
11320;DHT22;5715;48.234;14.320;2023-05-10T12:29:59;15.00;99.90
11320;DHT22;5715;48.234;14.320;2023-05-10T12:32:47;15.10;99.90
11320;DHT22;5715;48.234;14.320;2023-05-10T12:35:47;15.20;99.90
11320;DHT22;5715;48.234;14.320;2023-05-10T12:38:41;15.20;99.90
11320;DHT22;5715;48.234;14.320;2023-05-10T12:41:35;15.10;99.90
11320;DHT22;5715;48.234;14.320;2023-05-10T12:44:23;15.10;99.90
11320;DHT22;5715;48.234;14.320;2023-05-10T12:47:10;15.10;99.90
11320;DHT22;5715;48.234;14.320;2023-05-10T12:49:59;15.00;99.90
11320;DHT22;5715;48.234;14.320;2023-05-10T12:52:47;15.00;99.90
11320;DHT22;5715;48.234;14.320;2023-05-10T12:55:35;15.00;99.90
11320;DHT22;5715;48.234;14.320;2023-05-10T12:58:23;15.20;99.90
11320;DHT22;5715;48.234;14.320;2023-05-10T13:01:21;15.20;99.90
11320;DHT22;5715;48.234;14.320;2023-05-10T13:04:09;15.30;99.90
11320;DHT22;5715;48.234;14.320;2023-05-10T13:06:57;15.40;99.90
11320;DHT22;5715;48.234;14.320;2023-05-10T13:09:46;15.30;99.90
11320;DHT22;5715;48.234;14.320;2023-05-10T13:12:33;15.30;99.90
11320;DHT22;5715;48.234;14.320;2023-05-10T13:15:21;15.40;99.90
11320;DHT22;5715;48.234;14.320;2023-05-10T13:18:09;15.50;99.90
11320;DHT22;5715;48.234;14.320;2023-05-10T13:20:57;15.60;99.90
11320;DHT22;5715;48.234;14.320;2023-05-10T13:23:44;15.70;99.90
11320;DHT22;5715;48.234;14.320;2023-05-10T13:26:33;15.80;99.90
11320;DHT22;5715;48.234;14.320;2023-05-10T13:29:21;15.80;99.90
11320;DHT22;5715;48.234;14.320;2023-05-10T13:32:09;15.80;99.90
11320;DHT22;5715;48.234;14.320;2023-05-10T13:34:57;15.90;99.90
11320;DHT22;5715;48.234;14.320;2023-05-10T13:37:44;16.00;99.90
11320;DHT22;5715;48.234;14.320;2023-05-10T13:40:32;16.10;99.90
11320;DHT22;5715;48.234;14.320;2023-05-10T13:43:19;16.10;99.90
11320;DHT22;5715;48.234;14.320;2023-05-10T13:46:07;16.20;99.90
11320;DHT22;5715;48.234;14.320;2023-05-10T13:48:55;16.10;99.90
11320;DHT22;5715;48.234;14.320;2023-05-10T13:51:43;16.10;99.90
11320;DHT22;5715;48.234;14.320;2023-05-10T13:54:30;16.30;99.90
11320;DHT22;5715;48.234;14.320;2023-05-10T13:57:18;16.40;99.90
11320;DHT22;5715;48.234;14.320;2023-05-10T14:00:06;16.80;99.90
11320;DHT22;5715;48.234;14.320;2023-05-10T14:02:55;17.20;99.90
11320;DHT22;5715;48.234;14.320;2023-05-10T14:05:42;17.60;99.90
11320;DHT22;5715;48.234;14.320;2023-05-10T14:08:31;17.90;99.90
11320;DHT22;5715;48.234;14.320;2023-05-10T14:11:19;18.10;99.90
11320;DHT22;5715;48.234;14.320;2023-05-10T14:14:10;18.10;99.90
11320;DHT22;5715;48.234;14.320;2023-05-10T14:16:58;18.10;99.90
11320;DHT22;5715;48.234;14.320;2023-05-10T14:19:46;18.00;99.90
11320;DHT22;5715;48.234;14.320;2023-05-10T14:22:34;17.70;99.90
11320;DHT22;5715;48.234;14.320;2023-05-10T14:25:23;17.70;99.90
11320;DHT22;5715;48.234;14.320;2023-05-10T14:28:10;17.70;99.90
11320;DHT22;5715;48.234;14.320;2023-05-10T14:30:59;17.80;99.90
11320;DHT22;5715;48.234;14.320;2023-05-10T14:33:47;17.70;99.90
11320;DHT22;5715;48.234;14.320;2023-05-10T14:36:34;17.50;99.90
11320;DHT22;5715;48.234;14.320;2023-05-10T14:39:22;17.30;99.90
11320;DHT22;5715;48.234;14.320;2023-05-10T14:42:11;17.10;99.90
11320;DHT22;5715;48.234;14.320;2023-05-10T14:44:59;16.90;99.90
11320;DHT22;5715;48.234;14.320;2023-05-10T14:47:46;16.70;99.90
11320;DHT22;5715;48.234;14.320;2023-05-10T14:50:34;16.70;99.90
11320;DHT22;5715;48.234;14.320;2023-05-10T14:53:23;16.50;99.90
11320;DHT22;5715;48.234;14.320;2023-05-10T14:56:11;16.30;99.90
11320;DHT22;5715;48.234;14.320;2023-05-10T14:58:58;16.10;99.90
11320;DHT22;5715;48.234;14.320;2023-05-10T15:01:47;15.90;99.90
11320;DHT22;5715;48.234;14.320;2023-05-10T15:04:35;15.90;99.90
11320;DHT22;5715;48.234;14.320;2023-05-10T15:07:24;15.80;99.90
11320;DHT22;5715;48.234;14.320;2023-05-10T15:10:12;15.70;99.90
11320;DHT22;5715;48.234;14.320;2023-05-10T15:13:02;15.50;99.90
11320;DHT22;5715;48.234;14.320;2023-05-10T15:15:50;15.30;99.90
11320;DHT22;5715;48.234;14.320;2023-05-10T15:18:38;15.30;99.90
11320;DHT22;5715;48.234;14.320;2023-05-10T15:21:26;15.30;99.90
11320;DHT22;5715;48.234;14.320;2023-05-10T15:24:14;15.10;99.90
11320;DHT22;5715;48.234;14.320;2023-05-10T15:27:02;15.20;99.90
11320;DHT22;5715;48.234;14.320;2023-05-10T15:29:49;15.20;99.90
11320;DHT22;5715;48.234;14.320;2023-05-10T15:32:37;15.30;99.90
11320;DHT22;5715;48.234;14.320;2023-05-10T15:35:27;15.40;99.90
11320;DHT22;5715;48.234;14.320;2023-05-10T15:38:15;15.60;99.90
11320;DHT22;5715;48.234;14.320;2023-05-10T15:41:02;15.70;99.90
11320;DHT22;5715;48.234;14.320;2023-05-10T15:43:50;15.90;99.90
11320;DHT22;5715;48.234;14.320;2023-05-10T15:46:38;16.00;99.90
11320;DHT22;5715;48.234;14.320;2023-05-10T15:49:25;16.10;99.90
11320;DHT22;5715;48.234;14.320;2023-05-10T15:52:13;16.10;99.90
11320;DHT22;5715;48.234;14.320;2023-05-10T15:55:00;16.10;99.90
11320;DHT22;5715;48.234;14.320;2023-05-10T15:57:48;16.10;99.90
11320;DHT22;5715;48.234;14.320;2023-05-10T16:00:36;16.00;99.90
11320;DHT22;5715;48.234;14.320;2023-05-10T16:03:23;15.90;99.90
11320;DHT22;5715;48.234;14.320;2023-05-10T16:06:11;15.90;99.90
11320;DHT22;5715;48.234;14.320;2023-05-10T16:08:59;15.90;99.90
11320;DHT22;5715;48.234;14.320;2023-05-10T16:11:47;16.00;99.90
11320;DHT22;5715;48.234;14.320;2023-05-10T16:14:35;16.00;99.90
11320;DHT22;5715;48.234;14.320;2023-05-10T16:17:22;15.90;99.90
11320;DHT22;5715;48.234;14.320;2023-05-10T16:20:10;16.00;99.90
11320;DHT22;5715;48.234;14.320;2023-05-10T16:23:03;16.10;99.90
11320;DHT22;5715;48.234;14.320;2023-05-10T16:25:53;16.10;99.90
11320;DHT22;5715;48.234;14.320;2023-05-10T16:28:47;16.10;99.90
11320;DHT22;5715;48.234;14.320;2023-05-10T16:31:34;16.00;99.90
11320;DHT22;5715;48.234;14.320;2023-05-10T16:34:23;16.10;99.90
11320;DHT22;5715;48.234;14.320;2023-05-10T16:37:11;16.10;99.90
11320;DHT22;5715;48.234;14.320;2023-05-10T16:39:59;16.00;99.90
11320;DHT22;5715;48.234;14.320;2023-05-10T16:42:46;15.90;99.90
11320;DHT22;5715;48.234;14.320;2023-05-10T16:45:34;16.00;99.90
11320;DHT22;5715;48.234;14.320;2023-05-10T16:48:21;16.00;99.90
11320;DHT22;5715;48.234;14.320;2023-05-10T16:51:09;16.00;99.90
11320;DHT22;5715;48.234;14.320;2023-05-10T16:53:57;15.90;99.90
11320;DHT22;5715;48.234;14.320;2023-05-10T16:56:45;15.90;99.90
11320;DHT22;5715;48.234;14.320;2023-05-10T16:59:32;15.80;99.90
11320;DHT22;5715;48.234;14.320;2023-05-10T17:02:20;15.70;99.90
11320;DHT22;5715;48.234;14.320;2023-05-10T17:05:09;15.60;99.90
11320;DHT22;5715;48.234;14.320;2023-05-10T17:07:56;15.60;99.90
11320;DHT22;5715;48.234;14.320;2023-05-10T17:10:44;15.50;99.90
11320;DHT22;5715;48.234;14.320;2023-05-10T17:13:32;15.50;99.90
11320;DHT22;5715;48.234;14.320;2023-05-10T17:16:20;15.50;99.90
11320;DHT22;5715;48.234;14.320;2023-05-10T17:19:08;15.50;99.90
11320;DHT22;5715;48.234;14.320;2023-05-10T17:21:56;15.50;99.90
11320;DHT22;5715;48.234;14.320;2023-05-10T17:24:44;15.50;99.90
11320;DHT22;5715;48.234;14.320;2023-05-10T17:27:32;15.50;99.90
11320;DHT22;5715;48.234;14.320;2023-05-10T17:30:20;15.40;99.90
11320;DHT22;5715;48.234;14.320;2023-05-10T17:33:12;15.30;99.90
11320;DHT22;5715;48.234;14.320;2023-05-10T17:35:59;15.30;99.90
11320;DHT22;5715;48.234;14.320;2023-05-10T17:38:47;15.20;99.90
11320;DHT22;5715;48.234;14.320;2023-05-10T17:41:35;15.20;99.90
11320;DHT22;5715;48.234;14.320;2023-05-10T17:44:23;15.10;99.90
11320;DHT22;5715;48.234;14.320;2023-05-10T17:47:12;15.10;99.90
11320;DHT22;5715;48.234;14.320;2023-05-10T17:49:59;15.00;99.90
11320;DHT22;5715;48.234;14.320;2023-05-10T17:52:47;14.90;99.90
11320;DHT22;5715;48.234;14.320;2023-05-10T17:55:34;14.90;99.90
11320;DHT22;5715;48.234;14.320;2023-05-10T17:58:22;14.80;99.90
11320;DHT22;5715;48.234;14.320;2023-05-10T18:01:09;14.90;99.90
11320;DHT22;5715;48.234;14.320;2023-05-10T18:03:57;14.80;99.90
11320;DHT22;5715;48.234;14.320;2023-05-10T18:06:45;14.80;99.90
11320;DHT22;5715;48.234;14.320;2023-05-10T18:09:32;14.70;99.90
11320;DHT22;5715;48.234;14.320;2023-05-10T18:12:20;14.70;99.90